Springfield Branson National Airport
KSGF : now visible

Airfield :











YOU CAN JOIN US ON...

 
LOGIN :

Register | Disclaimer

   EN    FR    IT 

 









Legend :    VFR   Marginal VFR   IFR   Intensive IFR   Very Intensive IFR
Visi :
Ceiling :
>= 8 km
>= 3000ft
5 to 8 km
1000 to 3000 ft
1500m to 5 km
500 to 1000 ft
800 to 1500m
200 to 500 ft
< 800m
< 200 ft
Symbols :   Thunderstorms  Fog  Heavy snow  Heavy precipitations  Wind > 20 kt







- Airport Elevation : 1268 ft
- IATA code : SGF


KSGF - Springfield Branson National

CURRENT METAR :
  • 190852Z 16008KT 10SM BKN070 24/21 A2997 RMK AO2 SLP133 T02440206 53002 $

EXPIRED METARs :
  • 190752Z 17007KT 10SM BKN075 24/21 A2996 RMK AO2 SLP131 T02440206 $
  • 190652Z 19007KT 10SM SCT055 BKN070 24/21 A2997 RMK AO2 SLP132 T02440211 $

TAF KSGF
Valid from the 19 at 06:00 until the 20 at 06:00 UTC


190520Z 1906/2006 VRB04KT P6SM SCT250
FM191200 18006KT P6SM SCT120
FM191500 21007KT P6SM SKC
No reported NOTAMs for that airfield.



MET'MAP, your aeronautical weather chart ! - Copyright ORBIFLY December 2007 - Disclaimer

ORBIFLY MET'MAP TEAM :

Programming & Development : Alexandra Zaïnal
Concept & Development : Baudouin d'Aumeries
Co-Development & Prog : Marc-Olivier Méhu
Technical & hardware support : Manuel Goepfert

Contact : metmap@orbifly.com




SOURCES & CREDITS :

   NOAA       Earth
Advisory